Davis Monthan Air Force Base
KDMA : now visible

Airfield :











YOU CAN JOIN US ON...

 
LOGIN :

Register | Disclaimer

   EN    FR    IT 

 









Legend :    VFR   Marginal VFR   IFR   Intensive IFR   Very Intensive IFR
Visi :
Ceiling :
>= 8 km
>= 3000ft
5 to 8 km
1000 to 3000 ft
1500m to 5 km
500 to 1000 ft
800 to 1500m
200 to 500 ft
< 800m
< 200 ft
Symbols :   Thunderstorms  Fog  Heavy snow  Heavy precipitations  Wind > 20 kt






- Airport Elevation : 2704 ft


KDMA - Davis Monthan Air Force Base

CURRENT METAR :
  • 212358Z AUTO 29009KT 10SM CLR 34/M01 A2980 RMK AO2 SLP049 T03351010 10346 20296 57010 FZRANO $

EXPIRED METARs :
  • 212258Z AUTO 32005KT 10SM CLR 34/M03 A2981 RMK AO2 SLP052 T03391034 FZRANO $
  • 212158Z AUTO 35005KT 10SM CLR 34/M05 A2982 RMK AO2 SLP056 T03401049 FZRANO $

TAF TAF KDMA
Valid from the 21 at 22:00 until the 23 at 04:00 UTC


212203Z 2122/2304 32009KT 9999 FEW200 QNH2982INS
BECMG 2202/2203 15006KT 9999 SKC QNH2986INS
BECMG 2218/2219 22009KT 9999 FEW240 QNH2983INS
BECMG 2302/2303 VRB06KT 9999 SKC QNH2988INS TX34/2122Z TN16/2213Z
KZAB FIR / North America



MET'MAP, your aeronautical weather chart ! - Copyright ORBIFLY December 2007 - Disclaimer

ORBIFLY MET'MAP TEAM :

Programming & Development : Alexandra Zaïnal
Concept & original design : Baudouin d'Aumeries
Assistance for programming : Marc-Olivier Méhu
Technical & hardware support : Manuel Goepfert

Contact : metmap@orbifly.com




SOURCES & CREDITS :

   NOAA       Earth
Advisory